createdAt,value
2023-10-23T00:01:23.372Z,13.45
2023-10-23T00:03:50.215Z,13.41
2023-10-23T00:06:16.839Z,13.40
2023-10-23T00:08:43.215Z,13.44
2023-10-23T00:11:09.729Z,13.47
2023-10-23T00:13:36.096Z,13.47
2023-10-23T00:16:02.525Z,13.47
2023-10-23T00:18:29.015Z,13.51
2023-10-23T00:20:55.448Z,13.45
2023-10-23T00:23:21.908Z,13.39
2023-10-23T00:25:48.242Z,13.46
2023-10-23T00:28:14.567Z,13.48
2023-10-23T00:30:41.090Z,13.46
2023-10-23T00:33:08.676Z,13.48
2023-10-23T00:35:35.130Z,13.49
2023-10-23T00:38:01.648Z,13.43
2023-10-23T00:40:28.052Z,13.38
2023-10-23T00:42:54.477Z,13.35
2023-10-23T00:45:21.311Z,13.36
2023-10-23T00:47:48.007Z,13.40
2023-10-23T00:50:14.822Z,13.38
2023-10-23T00:52:41.354Z,13.41
2023-10-23T00:55:08.563Z,13.42
2023-10-23T00:57:34.967Z,13.33
2023-10-23T01:00:01.931Z,13.32
2023-10-23T01:02:29.427Z,13.31
2023-10-23T01:04:56.088Z,13.27
2023-10-23T01:07:23.145Z,13.28
2023-10-23T01:09:49.620Z,13.28
2023-10-23T01:12:16.058Z,13.24
2023-10-23T01:14:42.423Z,13.24
2023-10-23T01:17:08.802Z,13.23
2023-10-23T01:19:35.363Z,13.18
2023-10-23T01:22:01.853Z,13.16
2023-10-23T01:24:33.727Z,13.19
2023-10-23T01:27:00.216Z,13.13
2023-10-23T01:29:26.567Z,12.99
2023-10-23T01:31:52.906Z,12.92
2023-10-23T01:34:19.335Z,12.94
2023-10-23T01:36:45.721Z,12.83
2023-10-23T01:39:12.084Z,12.83
2023-10-23T01:41:38.536Z,12.78
2023-10-23T01:44:05.086Z,12.75
2023-10-23T01:46:31.496Z,12.69
2023-10-23T01:48:58.054Z,12.68
2023-10-23T01:51:24.577Z,12.67
2023-10-23T01:53:50.964Z,12.68
2023-10-23T01:56:17.494Z,12.67
2023-10-23T01:58:44.038Z,12.73
2023-10-23T02:01:23.997Z,12.70
2023-10-23T02:03:51.524Z,12.67
2023-10-23T02:06:18.088Z,12.56
2023-10-23T02:08:44.849Z,12.50
2023-10-23T02:11:11.308Z,12.47
2023-10-23T02:13:38.287Z,12.44
2023-10-23T02:16:05.055Z,12.43
2023-10-23T02:18:31.642Z,12.38
2023-10-23T02:20:58.261Z,12.40
2023-10-23T02:23:25.337Z,12.37
2023-10-23T02:25:51.908Z,12.26
2023-10-23T02:28:18.324Z,12.14
2023-10-23T02:30:45.074Z,12.13
2023-10-23T02:33:11.670Z,12.16
2023-10-23T02:35:38.289Z,12.15
2023-10-23T02:38:04.651Z,12.13
2023-10-23T02:40:31.244Z,12.13
2023-10-23T02:42:57.619Z,12.08
2023-10-23T02:45:24.116Z,12.08
2023-10-23T02:47:50.712Z,12.06
2023-10-23T02:50:17.099Z,12.05
2023-10-23T02:52:43.575Z,12.00
2023-10-23T02:55:10.608Z,11.93
2023-10-23T02:57:37.184Z,11.87
2023-10-23T03:00:06.577Z,11.86
2023-10-23T03:02:34.443Z,11.83
2023-10-23T03:05:01.004Z,11.80
2023-10-23T03:07:27.423Z,11.79
2023-10-23T03:09:53.936Z,11.78
2023-10-23T03:12:20.522Z,11.75
2023-10-23T03:14:46.918Z,11.69
2023-10-23T03:17:13.251Z,11.67
2023-10-23T03:19:39.910Z,11.66
2023-10-23T03:22:06.430Z,11.60
2023-10-23T03:24:32.893Z,11.60
2023-10-23T03:26:59.246Z,11.44
2023-10-23T03:29:25.614Z,11.41
2023-10-23T03:31:52.874Z,11.42
2023-10-23T03:34:19.378Z,11.44
2023-10-23T03:36:45.760Z,11.50
2023-10-23T03:39:12.350Z,11.42
2023-10-23T03:41:38.779Z,11.42
2023-10-23T03:44:05.453Z,11.46
2023-10-23T03:46:32.082Z,11.39
2023-10-23T03:48:58.617Z,11.26
2023-10-23T03:51:25.068Z,11.16
2023-10-23T03:53:51.414Z,11.22
2023-10-23T03:56:17.937Z,11.27
2023-10-23T03:58:45.798Z,11.25
2023-10-23T04:01:13.434Z,11.21
2023-10-23T04:03:39.984Z,11.19
2023-10-23T04:06:06.784Z,11.11
2023-10-23T04:08:33.260Z,11.14
2023-10-23T04:11:00.204Z,11.11
2023-10-23T04:13:28.935Z,11.12
2023-10-23T04:15:59.458Z,11.06
2023-10-23T04:18:26.856Z,11.08
2023-10-23T04:21:08.302Z,11.01
2023-10-23T04:23:36.376Z,10.89
2023-10-23T04:26:03.082Z,10.87
2023-10-23T04:28:29.738Z,10.89
2023-10-23T04:30:56.829Z,10.90
2023-10-23T04:33:24.801Z,10.97
2023-10-23T04:35:58.670Z,10.96
2023-10-23T04:38:25.716Z,10.89
2023-10-23T04:40:54.395Z,10.82
2023-10-23T04:43:21.513Z,10.61
2023-10-23T04:45:49.628Z,10.50
2023-10-23T04:48:16.454Z,10.56
2023-10-23T04:50:43.235Z,10.60
2023-10-23T04:53:09.658Z,10.58
2023-10-23T04:55:39.603Z,10.60
2023-10-23T04:58:06.850Z,10.62
2023-10-23T05:00:38.567Z,10.58
2023-10-23T05:03:05.898Z,10.53
2023-10-23T05:05:32.972Z,10.44
2023-10-23T05:08:00.222Z,10.46
2023-10-23T05:10:26.869Z,10.39
2023-10-23T05:12:54.589Z,10.37
2023-10-23T05:15:21.083Z,10.41
2023-10-23T05:17:47.903Z,10.37
2023-10-23T05:20:14.595Z,10.33
2023-10-23T05:22:41.071Z,10.40
2023-10-23T05:25:09.631Z,10.44
2023-10-23T05:27:39.182Z,10.43
2023-10-23T05:30:07.884Z,10.45
2023-10-23T05:32:39.713Z,10.47
2023-10-23T05:35:06.637Z,10.47
2023-10-23T05:37:36.710Z,10.49
2023-10-23T05:40:06.020Z,10.39
2023-10-23T05:42:32.888Z,10.27
2023-10-23T05:45:00.477Z,10.29
2023-10-23T05:47:27.142Z,10.25
2023-10-23T05:49:57.653Z,10.22
2023-10-23T05:52:24.046Z,10.20
2023-10-23T05:54:50.542Z,10.21
2023-10-23T05:57:16.950Z,10.19
2023-10-23T05:59:43.391Z,10.17
2023-10-23T06:02:10.474Z,10.12
2023-10-23T06:04:37.983Z,10.07
2023-10-23T06:07:04.808Z,10.09
2023-10-23T06:09:31.218Z,10.12
2023-10-23T06:11:57.666Z,10.08
2023-10-23T06:14:24.197Z,10.08
2023-10-23T06:16:50.568Z,10.09
2023-10-23T06:19:16.979Z,10.13
2023-10-23T06:21:43.367Z,10.16
2023-10-23T06:24:09.958Z,10.18
2023-10-23T06:26:36.326Z,10.01
2023-10-23T06:29:03.077Z,9.91
2023-10-23T06:31:29.921Z,10.00
2023-10-23T06:33:56.424Z,10.04
2023-10-23T06:36:22.885Z,10.04
2023-10-23T06:38:49.679Z,10.09
2023-10-23T06:41:16.078Z,10.13
2023-10-23T06:43:42.950Z,10.12
2023-10-23T06:46:09.565Z,10.03
2023-10-23T06:48:36.202Z,10.01
2023-10-23T06:51:02.804Z,9.95
2023-10-23T06:53:29.184Z,9.90
2023-10-23T06:55:56.468Z,9.89
2023-10-23T06:58:23.254Z,10.01
2023-10-23T07:00:49.997Z,10.08
2023-10-23T07:03:16.608Z,10.14
2023-10-23T07:05:43.552Z,10.26
2023-10-23T07:08:10.266Z,10.26
2023-10-23T07:10:37.144Z,10.26
2023-10-23T07:13:11.168Z,10.33
2023-10-23T07:15:41.937Z,10.34
2023-10-23T07:18:11.444Z,10.42
2023-10-23T07:20:38.067Z,10.44
2023-10-23T07:23:04.622Z,10.48
2023-10-23T07:25:31.195Z,10.47
2023-10-23T07:27:57.583Z,10.45
2023-10-23T07:30:25.836Z,10.45
2023-10-23T07:32:52.479Z,10.51
2023-10-23T07:35:18.859Z,10.51
2023-10-23T07:37:45.268Z,10.50
2023-10-23T07:40:12.338Z,10.51
2023-10-23T07:42:39.025Z,10.55
2023-10-23T07:45:06.164Z,10.61
2023-10-23T07:47:32.627Z,10.61
2023-10-23T07:49:59.013Z,10.70
2023-10-23T07:52:25.380Z,10.69
2023-10-23T07:54:51.803Z,10.67
2023-10-23T07:57:18.437Z,10.73
2023-10-23T07:59:44.812Z,10.71
2023-10-23T08:02:11.403Z,10.75
2023-10-23T08:04:37.945Z,10.76
2023-10-23T08:07:04.783Z,10.79
2023-10-23T08:09:31.357Z,10.87
2023-10-23T08:11:57.756Z,11.01
2023-10-23T08:14:24.145Z,11.01
2023-10-23T08:16:53.394Z,11.13
2023-10-23T08:19:21.099Z,11.21
2023-10-23T08:21:47.815Z,11.14
2023-10-23T08:24:14.954Z,11.28
2023-10-23T08:26:41.680Z,11.36
2023-10-23T08:29:08.053Z,11.40
2023-10-23T08:31:40.144Z,11.42
2023-10-23T08:34:08.783Z,11.49
2023-10-23T08:36:35.555Z,11.51
2023-10-23T08:39:03.925Z,11.50
2023-10-23T08:41:30.528Z,11.52
2023-10-23T08:43:57.621Z,11.60
2023-10-23T08:46:30.906Z,11.57
2023-10-23T08:48:57.619Z,11.52
2023-10-23T08:51:25.116Z,11.64
2023-10-23T08:54:09.538Z,11.60
2023-10-23T08:56:39.321Z,11.67
2023-10-23T08:59:06.437Z,11.69
2023-10-23T09:01:37.473Z,11.68
2023-10-23T09:04:06.273Z,11.70
2023-10-23T09:06:34.123Z,11.70
2023-10-23T09:09:01.230Z,11.73
2023-10-23T09:11:45.778Z,11.77
2023-10-23T09:14:25.826Z,11.75
2023-10-23T09:16:54.243Z,11.80
2023-10-23T09:19:38.458Z,11.80
2023-10-23T09:22:07.826Z,11.79
2023-10-23T09:24:34.372Z,11.84
2023-10-23T09:27:00.748Z,11.92
2023-10-23T09:29:28.636Z,11.95
2023-10-23T09:31:57.255Z,12.03
2023-10-23T09:34:24.181Z,12.05
2023-10-23T09:36:52.058Z,12.01
2023-10-23T09:39:20.075Z,12.02
2023-10-23T09:41:47.086Z,12.13
2023-10-23T09:44:14.798Z,12.17
2023-10-23T09:46:43.496Z,12.33
2023-10-23T09:49:11.241Z,12.36
2023-10-23T09:51:42.704Z,12.45
2023-10-23T09:54:18.188Z,12.51
2023-10-23T09:56:51.889Z,12.57
2023-10-23T09:59:21.809Z,12.55
2023-10-23T10:01:52.343Z,12.66
2023-10-23T10:04:46.704Z,12.67
2023-10-23T10:07:20.850Z,12.60
2023-10-23T10:09:47.767Z,12.54
2023-10-23T10:12:14.428Z,12.49
2023-10-23T10:14:41.704Z,12.52
2023-10-23T10:17:11.177Z,12.49
2023-10-23T10:19:38.658Z,12.56
2023-10-23T10:22:18.493Z,12.62
2023-10-23T10:24:46.026Z,12.66
2023-10-23T10:27:13.883Z,12.70
2023-10-23T10:29:40.415Z,12.74
2023-10-23T10:32:13.858Z,12.81
2023-10-23T10:34:46.895Z,12.89
2023-10-23T10:39:47.500Z,12.99
2023-10-23T10:42:17.831Z,13.06
2023-10-23T10:45:11.300Z,13.15
2023-10-23T10:47:38.094Z,13.21
2023-10-23T10:50:05.353Z,13.29
2023-10-23T10:52:36.676Z,13.35
2023-10-23T10:55:06.066Z,13.25
2023-10-23T10:57:33.221Z,13.19
2023-10-23T11:00:00.339Z,13.33
2023-10-23T11:02:27.263Z,13.42
2023-10-23T11:04:53.700Z,13.50
2023-10-23T11:07:27.877Z,13.52
2023-10-23T11:09:55.135Z,13.52
2023-10-23T11:12:22.469Z,13.59
2023-10-23T11:14:49.187Z,13.62
2023-10-23T11:17:16.635Z,13.68
2023-10-23T11:19:44.178Z,13.73
2023-10-23T11:22:12.427Z,13.72
2023-10-23T11:24:39.897Z,13.79
2023-10-23T11:27:06.846Z,13.78
2023-10-23T11:29:49.892Z,13.74
2023-10-23T11:32:17.424Z,13.79
2023-10-23T11:34:45.813Z,13.88
2023-10-23T11:37:12.795Z,13.94
2023-10-23T11:39:43.242Z,14.02
2023-10-23T11:42:11.002Z,14.08
2023-10-23T11:44:37.441Z,14.11
2023-10-23T11:47:08.779Z,14.11
2023-10-23T11:49:35.706Z,14.15
2023-10-23T11:52:03.859Z,14.15
2023-10-23T11:54:30.680Z,14.22
2023-10-23T11:56:59.752Z,14.21
2023-10-23T11:59:27.958Z,14.19
2023-10-23T12:01:56.392Z,14.15
2023-10-23T12:04:24.286Z,14.19
2023-10-23T12:06:50.904Z,14.24
2023-10-23T12:09:17.413Z,14.25
2023-10-23T12:11:43.949Z,14.30
2023-10-23T12:14:10.496Z,14.35
2023-10-23T12:16:37.067Z,14.39
2023-10-23T12:19:05.392Z,14.39
2023-10-23T12:21:32.056Z,14.41
2023-10-23T12:23:58.488Z,14.48
2023-10-23T12:26:25.012Z,14.54
2023-10-23T12:28:51.393Z,14.57
2023-10-23T12:31:23.807Z,14.54
2023-10-23T12:33:51.281Z,14.61
2023-10-23T12:36:19.030Z,14.65
2023-10-23T12:38:45.610Z,14.72
2023-10-23T12:41:12.902Z,14.80
2023-10-23T12:43:39.371Z,14.89
2023-10-23T12:46:06.171Z,14.86
2023-10-23T12:48:32.870Z,14.98
2023-10-23T12:50:59.929Z,14.97
2023-10-23T12:53:26.461Z,15.01
2023-10-23T12:55:53.031Z,15.01
2023-10-23T12:58:19.451Z,14.98
2023-10-23T13:00:45.949Z,15.04
2023-10-23T13:03:12.402Z,14.96
2023-10-23T13:05:39.760Z,14.95
2023-10-23T13:08:06.323Z,14.98
2023-10-23T13:10:32.944Z,15.04
2023-10-23T13:12:59.516Z,15.10
2023-10-23T13:15:26.037Z,15.14
2023-10-23T13:17:55.060Z,15.10
2023-10-23T13:21:29.711Z,15.07
2023-10-23T13:23:08.723Z,15.05
2023-10-23T13:25:36.046Z,15.07
2023-10-23T13:28:02.496Z,15.11
2023-10-23T13:30:29.213Z,15.08
2023-10-23T13:32:55.885Z,15.12
2023-10-23T13:35:22.582Z,15.08
2023-10-23T13:37:49.050Z,15.11
2023-10-23T13:40:15.849Z,15.12
2023-10-23T13:42:42.509Z,15.13
2023-10-23T13:45:09.502Z,15.18
2023-10-23T13:47:36.059Z,15.14
2023-10-23T13:50:02.609Z,15.23
2023-10-23T13:52:29.053Z,15.21
2023-10-23T13:54:57.434Z,15.23
2023-10-23T13:57:25.142Z,15.27
2023-10-23T13:59:51.564Z,15.17
2023-10-23T14:02:17.953Z,15.14
2023-10-23T14:04:44.383Z,15.06
2023-10-23T14:07:13.422Z,15.12
2023-10-23T14:09:45.455Z,15.10
2023-10-23T14:12:15.676Z,15.07
2023-10-23T14:14:42.154Z,15.15
2023-10-23T14:17:08.901Z,15.12
2023-10-23T14:19:46.750Z,15.02
2023-10-23T14:22:15.126Z,15.03
2023-10-23T14:24:42.295Z,14.97
2023-10-23T14:27:10.130Z,14.91
2023-10-23T14:29:36.963Z,14.84
2023-10-23T14:32:03.784Z,14.78
2023-10-23T14:34:30.476Z,14.87
2023-10-23T14:36:57.002Z,14.96
2023-10-23T14:39:30.889Z,14.86
2023-10-23T14:41:57.430Z,14.78
2023-10-23T14:44:26.792Z,14.85
2023-10-23T14:46:53.535Z,14.91
2023-10-23T14:49:20.462Z,14.86
2023-10-23T14:51:46.868Z,14.90
2023-10-23T14:54:13.341Z,14.95
2023-10-23T14:56:39.759Z,14.91
2023-10-23T14:59:06.186Z,14.84
2023-10-23T15:01:33.126Z,14.86
2023-10-23T15:04:01.245Z,14.87
2023-10-23T15:06:28.124Z,14.90
2023-10-23T15:08:54.647Z,14.82
2023-10-23T15:11:25.478Z,14.83
2023-10-23T15:13:54.138Z,14.84
2023-10-23T15:16:21.041Z,14.83
2023-10-23T15:18:47.717Z,14.82
2023-10-23T15:21:16.003Z,14.76
2023-10-23T15:23:42.394Z,14.78
2023-10-23T15:26:09.857Z,14.74
2023-10-23T15:28:37.131Z,14.72
2023-10-23T15:31:06.355Z,14.74
2023-10-23T15:33:35.411Z,14.75
2023-10-23T15:36:02.916Z,14.75
2023-10-23T15:38:30.608Z,14.72
2023-10-23T15:41:04.174Z,14.65
2023-10-23T15:43:30.622Z,14.67
2023-10-23T15:45:58.079Z,14.63
2023-10-23T15:48:25.245Z,14.58
2023-10-23T15:50:52.021Z,14.61
2023-10-23T15:53:18.440Z,14.53
2023-10-23T15:55:48.113Z,14.48
2023-10-23T15:58:14.650Z,14.46
2023-10-23T16:00:41.204Z,14.40
2023-10-23T16:03:07.878Z,14.40
2023-10-23T16:05:34.432Z,14.44
2023-10-23T16:08:00.933Z,14.36
2023-10-23T16:10:28.787Z,14.36
2023-10-23T16:12:56.169Z,14.33
2023-10-23T16:15:22.768Z,14.27
2023-10-23T16:17:49.343Z,14.27
2023-10-23T16:20:16.505Z,14.21
2023-10-23T16:22:44.815Z,14.19
2023-10-23T16:25:11.587Z,14.17
2023-10-23T16:27:38.103Z,14.13
2023-10-23T16:30:07.425Z,14.12
2023-10-23T16:32:34.357Z,14.12
2023-10-23T16:35:00.948Z,14.12
2023-10-23T16:37:29.714Z,14.03
2023-10-23T16:39:59.312Z,14.01
2023-10-23T16:42:25.798Z,14.04
2023-10-23T16:44:56.181Z,14.05
2023-10-23T16:47:23.470Z,13.98
2023-10-23T16:49:50.919Z,13.97
2023-10-23T16:52:17.368Z,13.95
2023-10-23T16:54:43.884Z,13.96
2023-10-23T16:57:10.658Z,13.92
2023-10-23T16:59:37.828Z,13.85
2023-10-23T17:02:04.529Z,13.82
2023-10-23T17:04:32.185Z,13.77
2023-10-23T17:06:59.618Z,13.77
2023-10-23T17:09:26.551Z,13.68
2023-10-23T17:11:53.066Z,13.62
2023-10-23T17:14:19.457Z,13.56
2023-10-23T17:16:46.134Z,13.55
2023-10-23T17:19:12.661Z,13.57
2023-10-23T17:21:39.210Z,13.53
2023-10-23T17:24:06.151Z,13.56
2023-10-23T17:26:32.589Z,13.52
2023-10-23T17:29:00.648Z,13.50
2023-10-23T17:31:28.071Z,13.46
2023-10-23T17:33:54.589Z,13.49
2023-10-23T17:36:21.535Z,13.53
2023-10-23T17:38:48.072Z,13.49
2023-10-23T17:41:16.062Z,13.51
2023-10-23T17:43:43.614Z,13.46
2023-10-23T17:46:13.429Z,13.45
2023-10-23T17:48:39.971Z,13.41
2023-10-23T17:51:15.064Z,13.43
2023-10-23T17:54:04.266Z,13.38
2023-10-23T17:56:33.956Z,13.36
2023-10-23T17:59:01.944Z,13.42
2023-10-23T18:01:28.437Z,13.44
2023-10-23T18:03:56.627Z,13.38
2023-10-23T18:06:23.221Z,13.32
2023-10-23T18:08:49.657Z,13.27
2023-10-23T18:11:16.255Z,13.28
2023-10-23T18:13:44.640Z,13.34
2023-10-23T18:16:14.649Z,13.29
2023-10-23T18:18:41.324Z,13.34
2023-10-23T18:21:08.298Z,13.33
2023-10-23T18:23:35.281Z,13.31
2023-10-23T18:26:01.935Z,13.32
2023-10-23T18:28:29.680Z,13.29
2023-10-23T18:31:00.627Z,13.33
2023-10-23T18:33:27.561Z,13.35
2023-10-23T18:36:01.304Z,13.36
2023-10-23T18:38:28.506Z,13.38
2023-10-23T18:40:55.852Z,13.41
2023-10-23T18:43:24.227Z,13.42
2023-10-23T18:45:50.869Z,13.40
2023-10-23T18:48:17.517Z,13.46
2023-10-23T18:50:44.279Z,13.44
2023-10-23T18:53:10.672Z,13.41
2023-10-23T18:55:37.084Z,13.41
2023-10-23T18:58:03.729Z,13.39
2023-10-23T19:00:30.279Z,13.47
2023-10-23T19:02:56.815Z,13.46
2023-10-23T19:05:23.389Z,13.44
2023-10-23T19:07:50.280Z,13.40
2023-10-23T19:10:16.852Z,13.38
2023-10-23T19:12:43.527Z,13.43
2023-10-23T19:15:10.128Z,13.44
2023-10-23T19:17:41.108Z,13.44
2023-10-23T19:20:09.215Z,13.45
2023-10-23T19:22:37.226Z,13.45
2023-10-23T19:25:04.936Z,13.51
2023-10-23T19:27:32.205Z,13.51
2023-10-23T19:29:58.853Z,13.51
2023-10-23T19:32:26.130Z,13.51
2023-10-23T19:34:52.975Z,13.49
2023-10-23T19:37:19.962Z,13.52
2023-10-23T19:39:46.712Z,13.48
2023-10-23T19:42:17.782Z,13.52
2023-10-23T19:44:44.778Z,13.54
2023-10-23T19:47:15.069Z,13.51
2023-10-23T19:49:44.371Z,13.50
2023-10-23T19:52:14.146Z,13.58
2023-10-23T19:54:47.883Z,13.61
2023-10-23T19:57:17.242Z,13.59
2023-10-23T19:59:43.978Z,13.59
2023-10-23T20:02:10.978Z,13.62
2023-10-23T20:04:37.628Z,13.61
2023-10-23T20:07:04.670Z,13.63
2023-10-23T20:09:31.252Z,13.67
2023-10-23T20:11:57.668Z,13.68
2023-10-23T20:14:24.261Z,13.71
2023-10-23T20:16:50.857Z,13.69
2023-10-23T20:19:17.490Z,13.70
2023-10-23T20:21:45.468Z,13.72
2023-10-23T20:24:11.983Z,13.73
2023-10-23T20:26:40.161Z,13.73
2023-10-23T20:29:06.672Z,13.72
2023-10-23T20:31:33.171Z,13.69
2023-10-23T20:33:59.697Z,13.73
2023-10-23T20:36:27.696Z,13.74
2023-10-23T20:38:54.133Z,13.74
2023-10-23T20:41:20.873Z,13.74
2023-10-23T20:43:49.619Z,13.78
2023-10-23T20:46:17.342Z,13.78
2023-10-23T20:48:44.254Z,13.76
2023-10-23T20:51:10.992Z,13.75
2023-10-23T20:53:37.485Z,13.75
2023-10-23T20:56:04.379Z,13.73
2023-10-23T20:58:31.831Z,13.74
2023-10-23T21:01:05.155Z,13.77
2023-10-23T21:03:31.895Z,13.78
2023-10-23T21:06:05.761Z,13.73
2023-10-23T21:08:39.808Z,13.69
2023-10-23T21:11:07.245Z,13.67
2023-10-23T21:13:34.677Z,13.68
2023-10-23T21:16:01.537Z,13.66
2023-10-23T21:18:28.338Z,13.66
2023-10-23T21:20:57.393Z,13.65
2023-10-23T21:23:23.912Z,13.67
2023-10-23T21:25:53.342Z,13.71
2023-10-23T21:28:26.584Z,13.65
2023-10-23T21:30:55.254Z,13.62
2023-10-23T21:33:21.794Z,13.62
2023-10-23T21:35:48.281Z,13.58
2023-10-23T21:38:15.499Z,13.61
2023-10-23T21:40:46.261Z,13.64
2023-10-23T21:43:13.401Z,13.62
2023-10-23T21:45:41.138Z,13.62
2023-10-23T21:48:08.166Z,13.64
2023-10-23T21:50:34.630Z,13.66
2023-10-23T21:53:01.302Z,13.62
2023-10-23T21:55:28.067Z,13.68
2023-10-23T21:57:54.699Z,13.66
2023-10-23T22:00:31.271Z,13.67
2023-10-23T22:03:00.753Z,13.67
2023-10-23T22:05:27.526Z,13.72
2023-10-23T22:07:54.401Z,13.71
2023-10-23T22:10:22.970Z,13.73
2023-10-23T22:12:49.642Z,13.76
2023-10-23T22:15:16.108Z,13.75
2023-10-23T22:17:42.486Z,13.73
2023-10-23T22:20:09.526Z,13.77
2023-10-23T22:22:36.453Z,13.76
2023-10-23T22:25:04.614Z,13.74
2023-10-23T22:27:33.381Z,13.76
2023-10-23T22:30:06.126Z,13.76
2023-10-23T22:32:33.715Z,13.75
2023-10-23T22:35:01.489Z,13.79
2023-10-23T22:37:55.697Z,13.76
2023-10-23T22:40:16.643Z,13.74
2023-10-23T22:42:43.597Z,13.76
2023-10-23T22:45:10.204Z,13.77
2023-10-23T22:47:36.635Z,13.82
2023-10-23T22:50:03.577Z,13.76
2023-10-23T22:52:30.255Z,13.75
2023-10-23T22:54:56.873Z,13.81
2023-10-23T22:57:24.174Z,13.80
2023-10-23T22:59:51.215Z,13.79
2023-10-23T23:02:18.515Z,13.82
2023-10-23T23:04:45.671Z,13.80
2023-10-23T23:07:12.812Z,13.84
2023-10-23T23:09:40.996Z,13.80
2023-10-23T23:12:08.147Z,13.81
2023-10-23T23:14:35.180Z,13.86
2023-10-23T23:17:04.090Z,13.85
2023-10-23T23:19:32.081Z,13.87
2023-10-23T23:22:06.929Z,13.86
2023-10-23T23:24:33.455Z,13.88
2023-10-23T23:26:59.948Z,13.84
2023-10-23T23:29:26.353Z,13.83
2023-10-23T23:31:52.924Z,13.88
2023-10-23T23:34:19.448Z,13.92
2023-10-23T23:36:45.852Z,13.96
2023-10-23T23:39:12.574Z,13.94
2023-10-23T23:41:38.919Z,13.92
2023-10-23T23:44:05.409Z,13.89
2023-10-23T23:46:31.902Z,13.91
2023-10-23T23:48:58.405Z,13.89
2023-10-23T23:51:24.817Z,13.81
2023-10-23T23:53:51.486Z,13.86
2023-10-23T23:56:17.840Z,13.86
2023-10-23T23:58:44.753Z,13.89
